Time;durP1;ratioP1;P1;durP2;ratioP2;P2;SDS_P1;SDS_P2;PMS_P1;PMS_P2;Temp;Humidity;BMP_temperature;BMP_pressure;BME280_temperature;BME280_humidity;BME280_pressure;Samples;Min_cycle;Max_cycle;Signal;HPM_P1;HPM_P2
2024/04/15 00:01:04;;;;;;;4.57;2.20;;;13.20;99.90;;;;;;5440030;26;20252;-74
2024/04/15 00:03:31;;;;;;;6.45;2.15;;;13.20;99.90;;;;;;5420169;26;20233;-77
2024/04/15 00:05:57;;;;;;;4.78;1.90;;;13.10;99.90;;;;;;5454676;26;20229;-74
2024/04/15 00:08:23;;;;;;;4.03;2.13;;;13.20;99.90;;;;;;5456320;26;20256;-75
2024/04/15 00:10:50;;;;;;;5.45;1.50;;;13.10;99.90;;;;;;5457065;26;20298;-74
2024/04/15 00:13:17;;;;;;;5.38;1.60;;;13.10;99.90;;;;;;5453343;26;20688;-75
2024/04/15 00:15:43;;;;;;;4.88;2.53;;;13.10;99.90;;;;;;5455311;26;20761;-74
2024/04/15 00:18:09;;;;;;;3.85;1.58;;;13.10;99.90;;;;;;5441819;26;20260;-74
2024/04/15 00:20:35;;;;;;;5.78;1.90;;;13.00;99.90;;;;;;5455943;26;20269;-74
2024/04/15 00:23:01;;;;;;;3.95;1.55;;;13.10;99.90;;;;;;5452871;26;20270;-74
2024/04/15 00:25:27;;;;;;;4.93;1.85;;;13.10;99.90;;;;;;5456404;26;20226;-73
2024/04/15 00:27:53;;;;;;;5.68;1.70;;;13.10;99.90;;;;;;5458786;26;20284;-73
2024/04/15 00:30:19;;;;;;;6.68;1.75;;;13.00;99.90;;;;;;5456834;26;20558;-76
2024/04/15 00:32:46;;;;;;;6.10;2.05;;;13.00;99.90;;;;;;5454783;26;20755;-74
2024/04/15 00:35:12;;;;;;;6.78;2.17;;;13.00;99.90;;;;;;5440584;26;20264;-74
2024/04/15 00:37:38;;;;;;;4.45;1.75;;;13.00;99.90;;;;;;5449919;26;20251;-73
2024/04/15 00:40:04;;;;;;;6.20;2.45;;;13.00;99.90;;;;;;5453426;26;20254;-74
2024/04/15 00:42:31;;;;;;;4.55;2.45;;;13.00;99.90;;;;;;5451496;26;20689;-74
2024/04/15 00:44:57;;;;;;;5.72;2.22;;;13.00;99.90;;;;;;5420473;26;20261;-75
2024/04/15 00:47:23;;;;;;;4.30;2.55;;;13.00;99.90;;;;;;5447894;26;20286;-74
2024/04/15 00:49:50;;;;;;;9.40;2.10;;;13.00;99.90;;;;;;5457228;26;20221;-74
2024/04/15 00:52:17;;;;;;;5.28;2.22;;;12.90;99.90;;;;;;5430222;26;20274;-74
2024/04/15 00:54:45;;;;;;;6.03;2.60;;;12.90;99.90;;;;;;5442765;26;20242;-76
2024/04/15 00:57:14;;;;;;;4.00;1.77;;;13.00;99.90;;;;;;5452487;26;20606;-74
2024/04/15 00:59:41;;;;;;;6.80;2.25;;;12.90;99.90;;;;;;5450695;26;20237;-74
2024/04/15 01:02:08;;;;;;;5.75;2.30;;;13.00;99.90;;;;;;5434195;26;20225;-75
2024/04/15 01:04:35;;;;;;;6.30;2.40;;;12.90;99.90;;;;;;5439360;26;20298;-75
2024/04/15 01:07:01;;;;;;;5.20;2.25;;;12.90;99.90;;;;;;5431244;26;20272;-74
2024/04/15 01:09:27;;;;;;;3.88;2.08;;;12.90;99.90;;;;;;5450661;26;20272;-75
2024/04/15 01:11:53;;;;;;;4.35;1.95;;;12.90;99.90;;;;;;5442802;26;20221;-74
2024/04/15 01:14:19;;;;;;;4.82;2.35;;;12.90;99.90;;;;;;5451298;26;20226;-74
2024/04/15 01:16:45;;;;;;;6.95;2.90;;;12.90;99.90;;;;;;5451904;26;20222;-74
2024/04/15 01:19:12;;;;;;;4.53;2.35;;;12.90;99.90;;;;;;5455524;26;20221;-76
2024/04/15 01:21:41;;;;;;;3.15;2.30;;;12.90;99.90;;;;;;5452008;26;20285;-75
2024/04/15 01:24:07;;;;;;;5.07;2.80;;;12.90;99.90;;;;;;5429779;26;20242;-76
2024/04/15 01:26:33;;;;;;;5.75;3.10;;;12.90;99.90;;;;;;5429274;26;20226;-75
2024/04/15 01:28:59;;;;;;;8.30;2.97;;;12.90;99.90;;;;;;5444145;26;20768;-76
2024/04/15 01:31:25;;;;;;;5.65;2.45;;;12.90;99.90;;;;;;5452077;26;20234;-75
2024/04/15 01:33:51;;;;;;;7.63;2.97;;;12.90;99.90;;;;;;5448241;26;20273;-75
2024/04/15 01:36:18;;;;;;;5.35;2.50;;;12.90;99.90;;;;;;5453114;26;20290;-75
2024/04/15 01:38:44;;;;;;;6.15;3.20;;;12.80;99.90;;;;;;5452524;26;20614;-75
2024/04/15 01:41:10;;;;;;;6.75;3.55;;;12.80;99.90;;;;;;5452085;26;20712;-75
2024/04/15 01:43:36;;;;;;;8.50;3.15;;;12.80;99.90;;;;;;5451527;26;20281;-75
2024/04/15 01:46:02;;;;;;;4.63;2.60;;;12.80;99.90;;;;;;5442269;26;20249;-75
2024/04/15 01:48:28;;;;;;;4.70;3.15;;;12.80;99.90;;;;;;5427518;26;20235;-75
2024/04/15 01:50:54;;;;;;;5.60;3.42;;;12.80;99.90;;;;;;5451864;26;20281;-74
2024/04/15 01:53:20;;;;;;;4.30;2.47;;;12.80;99.90;;;;;;5448505;26;20233;-75
2024/04/15 01:55:47;;;;;;;4.68;2.95;;;12.70;99.90;;;;;;5438369;26;20274;-75
2024/04/15 01:58:13;;;;;;;5.47;3.22;;;12.70;99.90;;;;;;5478387;26;20374;-75
2024/04/15 02:00:39;;;;;;;4.75;2.80;;;12.60;99.90;;;;;;5451427;26;20265;-74
2024/04/15 02:03:06;;;;;;;4.82;3.63;;;12.60;99.90;;;;;;5449236;26;20306;-75
2024/04/15 02:05:32;;;;;;;7.68;3.90;;;12.50;99.90;;;;;;5448403;26;20316;-75
2024/04/15 02:07:58;;;;;;;8.43;3.47;;;12.40;99.90;;;;;;5447505;26;20410;-74
2024/04/15 02:10:24;;;;;;;5.07;2.95;;;12.30;99.90;;;;;;5411653;26;20266;-75
2024/04/15 02:12:50;;;;;;;6.03;3.60;;;12.30;99.90;;;;;;5450704;26;20570;-75
2024/04/15 02:15:16;;;;;;;4.65;3.25;;;12.20;99.90;;;;;;5415042;26;20289;-74
2024/04/15 02:17:42;;;;;;;6.45;4.20;;;12.20;99.90;;;;;;5441324;26;20222;-75
2024/04/15 02:20:09;;;;;;;5.05;3.50;;;12.10;99.90;;;;;;5420937;26;20229;-74
2024/04/15 02:22:35;;;;;;;8.60;3.60;;;12.00;99.90;;;;;;5441992;26;20702;-75
2024/04/15 02:25:03;;;;;;;5.90;4.43;;;12.00;99.90;;;;;;5415352;26;20266;-75
2024/04/15 02:27:35;;;;;;;5.00;3.92;;;12.00;99.90;;;;;;5419687;26;20274;-76
2024/04/15 02:30:05;;;;;;;7.80;4.93;;;11.90;99.90;;;;;;5457373;26;20259;-75
2024/04/15 02:32:31;;;;;;;6.28;3.50;;;11.90;99.90;;;;;;5456205;26;20798;-75
2024/04/15 02:34:57;;;;;;;6.28;3.63;;;11.90;99.90;;;;;;5462148;26;20624;-75
2024/04/15 02:37:24;;;;;;;4.35;3.95;;;11.80;99.90;;;;;;5464567;26;20269;-75
2024/04/15 02:39:50;;;;;;;6.63;3.88;;;11.90;99.90;;;;;;5420223;26;20262;-75
2024/04/15 02:42:16;;;;;;;6.22;4.20;;;11.90;99.90;;;;;;5460902;26;20751;-76
2024/04/15 02:44:42;;;;;;;5.78;4.85;;;11.90;99.90;;;;;;5490569;26;20233;-75
2024/04/15 02:47:08;;;;;;;4.60;4.20;;;11.90;99.90;;;;;;5459864;26;20237;-75
2024/04/15 02:49:34;;;;;;;6.35;5.25;;;11.90;99.90;;;;;;5468069;26;20284;-76
2024/04/15 02:52:00;;;;;;;8.27;4.25;;;11.90;99.90;;;;;;5449951;26;20573;-76
2024/04/15 02:54:27;;;;;;;7.15;5.30;;;11.90;99.90;;;;;;5428263;26;20339;-76
2024/04/15 02:56:53;;;;;;;7.57;3.83;;;11.90;99.90;;;;;;5441210;26;20283;-76
2024/04/15 02:59:19;;;;;;;5.78;4.65;;;11.90;99.90;;;;;;5463548;26;21076;-76
2024/04/15 03:01:45;;;;;;;5.05;4.15;;;11.90;99.90;;;;;;5452766;26;20506;-76
2024/04/15 03:04:11;;;;;;;6.03;4.15;;;11.90;99.90;;;;;;5472388;26;20234;-76
2024/04/15 03:06:37;;;;;;;6.78;4.63;;;11.90;99.90;;;;;;5456448;26;20221;-75
2024/04/15 03:09:03;;;;;;;9.70;4.72;;;11.90;99.90;;;;;;5435987;26;20293;-76
2024/04/15 03:11:29;;;;;;;6.43;4.20;;;11.90;99.90;;;;;;5448674;26;20230;-76
2024/04/15 03:13:56;;;;;;;6.20;4.50;;;11.90;99.90;;;;;;5436253;26;20302;-76
2024/04/15 03:16:22;;;;;;;7.13;4.25;;;12.00;99.90;;;;;;5449230;26;20361;-77
2024/04/15 03:18:48;;;;;;;6.25;4.50;;;11.90;99.90;;;;;;5441109;26;20276;-75
2024/04/15 03:21:14;;;;;;;6.95;4.00;;;11.90;99.90;;;;;;5448716;26;20233;-77
2024/04/15 03:23:40;;;;;;;6.22;4.18;;;11.80;99.90;;;;;;5450057;26;20260;-75
2024/04/15 03:26:06;;;;;;;7.05;4.32;;;11.80;99.90;;;;;;5449952;26;20289;-76
2024/04/15 03:28:34;;;;;;;7.05;4.82;;;11.70;99.90;;;;;;5459165;26;20560;-75
2024/04/15 03:31:00;;;;;;;5.05;4.15;;;11.70;99.90;;;;;;5456295;26;20226;-75
2024/04/15 03:33:27;;;;;;;7.40;4.85;;;11.70;99.90;;;;;;5433860;26;20260;-75
2024/04/15 03:35:53;;;;;;;6.97;4.60;;;11.60;99.90;;;;;;5449875;26;20273;-75
2024/04/15 03:38:19;;;;;;;9.05;4.25;;;11.60;99.90;;;;;;5446624;26;20230;-75
2024/04/15 03:40:45;;;;;;;4.78;4.28;;;11.50;99.90;;;;;;5450085;26;20285;-75
2024/04/15 03:43:11;;;;;;;4.95;3.53;;;11.50;99.90;;;;;;5444413;26;20314;-75
2024/04/15 03:45:37;;;;;;;5.72;3.90;;;11.40;99.90;;;;;;5450663;26;20256;-75
2024/04/15 03:48:03;;;;;;;5.60;4.53;;;11.40;99.90;;;;;;5435477;26;20763;-76
2024/04/15 03:50:31;;;;;;;7.22;4.47;;;11.40;99.90;;;;;;5437677;26;20313;-75
2024/04/15 03:52:58;;;;;;;7.10;4.50;;;11.40;99.90;;;;;;5437909;26;20759;-76
2024/04/15 03:55:24;;;;;;;4.75;4.10;;;11.30;99.90;;;;;;5442320;26;20230;-76
2024/04/15 03:57:51;;;;;;;6.60;3.38;;;11.20;99.90;;;;;;5448081;26;20229;-75
2024/04/15 04:00:18;;;;;;;5.15;3.95;;;11.20;99.90;;;;;;5449947;26;20222;-75
2024/04/15 04:02:44;;;;;;;6.13;3.88;;;11.10;99.90;;;;;;5441559;26;20229;-75
2024/04/15 04:05:10;;;;;;;3.75;2.97;;;11.10;99.90;;;;;;5449155;26;20233;-75
2024/04/15 04:07:37;;;;;;;7.70;4.70;;;11.10;99.90;;;;;;5420592;26;20260;-76
2024/04/15 04:10:03;;;;;;;3.90;3.28;;;11.00;99.90;;;;;;5447562;26;20755;-76
2024/04/15 04:12:31;;;;;;;6.97;4.47;;;11.00;99.90;;;;;;5449255;26;20221;-76
2024/04/15 04:14:57;;;;;;;10.30;4.15;;;11.00;99.90;;;;;;5449202;26;20304;-75
2024/04/15 04:17:23;;;;;;;5.43;4.72;;;10.90;99.90;;;;;;5445798;26;20229;-76
2024/04/15 04:19:50;;;;;;;6.68;4.30;;;10.90;99.90;;;;;;5441799;26;20222;-75
2024/04/15 04:22:16;;;;;;;9.15;4.00;;;10.90;99.90;;;;;;5414904;26;20230;-75
2024/04/15 04:24:42;;;;;;;6.43;3.58;;;10.80;99.90;;;;;;5445181;26;20274;-76
2024/04/15 04:27:08;;;;;;;5.88;4.03;;;10.80;99.90;;;;;;5452726;26;20229;-76
2024/04/15 04:29:34;;;;;;;5.85;4.03;;;10.80;99.90;;;;;;5477996;26;20275;-76
2024/04/15 04:32:01;;;;;;;4.20;3.28;;;10.70;99.90;;;;;;5424366;26;20621;-76
2024/04/15 04:34:27;;;;;;;3.63;3.33;;;10.70;99.90;;;;;;5459655;26;20264;-75
2024/04/15 04:36:54;;;;;;;9.63;4.30;;;10.70;99.90;;;;;;5442478;26;20266;-76
2024/04/15 04:39:21;;;;;;;8.52;3.95;;;10.70;99.90;;;;;;5448172;26;20245;-76
2024/04/15 04:41:47;;;;;;;9.93;4.70;;;10.70;99.90;;;;;;5452393;26;20231;-76
2024/04/15 04:44:13;;;;;;;5.78;4.15;;;10.60;99.90;;;;;;5441153;26;20294;-76
2024/04/15 04:46:42;;;;;;;5.20;3.00;;;10.60;99.90;;;;;;5436962;26;20262;-76
2024/04/15 04:49:08;;;;;;;9.70;3.50;;;10.60;99.90;;;;;;5445361;26;20234;-76
2024/04/15 04:51:34;;;;;;;4.75;3.05;;;10.60;99.90;;;;;;5460264;26;20229;-76
2024/04/15 04:54:00;;;;;;;6.93;3.53;;;10.60;99.90;;;;;;5448429;26;20335;-76
2024/04/15 04:56:26;;;;;;;4.85;3.03;;;10.60;99.90;;;;;;5448910;26;20277;-75
2024/04/15 04:58:53;;;;;;;3.97;3.20;;;10.60;99.90;;;;;;5448999;26;20222;-76
2024/04/15 05:01:19;;;;;;;7.10;3.42;;;10.60;99.90;;;;;;5434235;26;20811;-75
2024/04/15 05:03:47;;;;;;;6.82;3.22;;;10.60;99.90;;;;;;5449552;26;20230;-75
2024/04/15 05:06:15;;;;;;;4.82;3.35;;;10.60;99.90;;;;;;5432889;26;20323;-75
2024/04/15 05:08:41;;;;;;;6.00;3.42;;;10.60;99.90;;;;;;5458933;26;20281;-75
2024/04/15 05:11:07;;;;;;;5.90;3.10;;;10.60;99.90;;;;;;5480569;26;20348;-76
2024/04/15 05:13:34;;;;;;;6.63;3.53;;;10.60;99.90;;;;;;5420634;26;20277;-76
2024/04/15 05:16:07;;;;;;;6.85;3.40;;;10.60;99.90;;;;;;5451858;26;20264;-76
2024/04/15 05:18:35;;;;;;;5.75;3.20;;;10.60;99.90;;;;;;5450376;26;20229;-76
2024/04/15 05:21:01;;;;;;;6.28;2.85;;;10.60;99.90;;;;;;5452219;26;20289;-76
2024/04/15 05:23:28;;;;;;;6.30;3.22;;;10.60;99.90;;;;;;5455686;26;20293;-76
2024/04/15 05:25:56;;;;;;;8.35;3.38;;;10.60;99.90;;;;;;5381231;26;20745;-76
2024/04/15 05:28:22;;;;;;;3.53;2.58;;;10.60;99.90;;;;;;5452519;26;20264;-76
2024/04/15 05:30:49;;;;;;;6.20;3.10;;;10.70;99.90;;;;;;5450385;26;21063;-76
2024/04/15 05:33:15;;;;;;;4.30;2.80;;;10.70;99.90;;;;;;5449957;26;20233;-76
2024/04/15 05:35:42;;;;;;;6.63;2.70;;;10.70;99.90;;;;;;5451348;26;20307;-76
2024/04/15 05:38:08;;;;;;;4.88;3.28;;;10.80;99.90;;;;;;5451302;26;20827;-76
2024/04/15 05:40:34;;;;;;;5.80;3.00;;;10.90;99.90;;;;;;5452201;26;20274;-76
2024/04/15 05:43:00;;;;;;;5.50;2.83;;;11.00;99.90;;;;;;5437969;26;20870;-76
2024/04/15 05:45:27;;;;;;;5.88;2.70;;;11.10;99.90;;;;;;5440469;26;20607;-76
2024/04/15 05:47:53;;;;;;;5.05;3.03;;;11.10;99.90;;;;;;5451591;26;20277;-76
2024/04/15 05:50:19;;;;;;;6.85;3.03;;;11.30;99.90;;;;;;5452355;26;20817;-76
2024/04/15 05:52:45;;;;;;;5.45;2.60;;;11.40;99.90;;;;;;5449542;26;20245;-76
2024/04/15 05:55:11;;;;;;;8.07;2.85;;;11.50;99.90;;;;;;5464983;26;20303;-76
2024/04/15 05:57:37;;;;;;;5.05;2.88;;;11.60;99.90;;;;;;5449664;26;20253;-76
2024/04/15 06:00:05;;;;;;;3.80;2.05;;;11.70;99.90;;;;;;5449083;26;20237;-76
2024/04/15 06:02:39;;;;;;;4.88;2.60;;;11.90;99.90;;;;;;5437363;26;20546;-76
2024/04/15 06:05:06;;;;;;;4.53;2.50;;;12.00;99.90;;;;;;5464514;26;20706;-76
2024/04/15 06:07:32;;;;;;;4.60;2.15;;;12.10;99.90;;;;;;5451135;26;20226;-76
2024/04/15 06:09:58;;;;;;;3.95;2.10;;;12.30;99.90;;;;;;5451411;26;20367;-76
2024/04/15 06:12:25;;;;;;;3.65;2.08;;;12.40;99.90;;;;;;5450820;26;20229;-76
2024/04/15 06:14:52;;;;;;;6.03;2.22;;;12.50;99.90;;;;;;5426623;26;20297;-76
2024/04/15 06:17:19;;;;;;;4.85;2.08;;;12.60;99.90;;;;;;5441460;26;20234;-77
2024/04/15 06:19:45;;;;;;;4.40;2.28;;;12.80;99.90;;;;;;5436325;26;20293;-77
2024/04/15 06:22:11;;;;;;;5.88;1.80;;;12.90;99.90;;;;;;5443673;26;20230;-77
2024/04/15 06:24:37;;;;;;;5.90;1.42;;;13.10;99.90;;;;;;5442250;26;20276;-76
2024/04/15 06:27:04;;;;;;;4.15;1.58;;;13.30;99.90;;;;;;5449753;26;20230;-75
2024/04/15 06:29:31;;;;;;;4.18;2.00;;;13.40;99.90;;;;;;5470036;26;20572;-76
2024/04/15 06:31:57;;;;;;;6.68;1.63;;;13.50;99.90;;;;;;5468182;26;20224;-75
2024/04/15 06:34:24;;;;;;;4.35;1.30;;;13.50;99.90;;;;;;5467216;26;20595;-75
2024/04/15 06:36:52;;;;;;;3.80;1.55;;;13.50;99.90;;;;;;5422704;26;20263;-76
2024/04/15 06:39:18;;;;;;;3.53;1.85;;;13.50;99.90;;;;;;5425035;26;20234;-76
2024/04/15 06:41:44;;;;;;;5.78;1.90;;;13.50;99.90;;;;;;5430350;26;20223;-75
2024/04/15 06:44:13;;;;;;;5.00;1.80;;;13.50;99.90;;;;;;5441341;26;20707;-76
2024/04/15 06:46:40;;;;;;;3.03;1.75;;;13.50;99.90;;;;;;5446604;26;20261;-75
2024/04/15 06:49:06;;;;;;;5.65;1.67;;;13.40;99.90;;;;;;5450760;26;20268;-76
2024/04/15 06:51:33;;;;;;;7.25;2.00;;;13.50;99.90;;;;;;5450811;26;20234;-75
2024/04/15 06:53:59;;;;;;;5.85;1.30;;;13.50;99.90;;;;;;5448562;26;20738;-76
2024/04/15 06:56:25;;;;;;;4.82;1.80;;;13.60;99.90;;;;;;5447002;26;20222;-76
2024/04/15 06:58:52;;;;;;;6.22;1.35;;;13.60;99.90;;;;;;5447273;26;20743;-75
2024/04/15 07:01:18;;;;;;;4.55;1.50;;;13.70;99.90;;;;;;5445474;26;20229;-75
2024/04/15 07:03:44;;;;;;;6.95;2.10;;;13.80;99.90;;;;;;5446277;26;20590;-75
2024/04/15 07:06:10;;;;;;;6.75;2.05;;;14.00;99.90;;;;;;5437927;26;20757;-75
2024/04/15 07:08:37;;;;;;;8.63;1.90;;;14.20;99.90;;;;;;5437676;26;20319;-75
2024/04/15 07:11:03;;;;;;;5.90;1.77;;;14.40;99.90;;;;;;5437430;26;20559;-76
2024/04/15 07:13:31;;;;;;;7.93;1.60;;;14.50;99.90;;;;;;5448119;26;20556;-76
2024/04/15 07:15:58;;;;;;;5.10;1.83;;;14.70;99.90;;;;;;5448412;26;20614;-75
2024/04/15 07:18:24;;;;;;;5.03;1.57;;;14.80;99.90;;;;;;5447919;26;20611;-75
2024/04/15 07:20:50;;;;;;;5.93;1.53;;;14.90;99.90;;;;;;5450184;26;20586;-76
2024/04/15 07:23:17;;;;;;;6.20;1.30;;;15.10;99.90;;;;;;5444511;26;21171;-76
2024/04/15 07:25:43;;;;;;;6.00;1.60;;;15.30;99.90;;;;;;5420576;26;20555;-76
2024/04/15 07:28:09;;;;;;;4.50;1.40;;;15.50;99.90;;;;;;5450457;26;20614;-74
2024/04/15 07:30:35;;;;;;;5.67;1.40;;;15.70;99.90;;;;;;5449714;26;20527;-75
2024/04/15 07:33:03;;;;;;;5.17;1.60;;;15.90;99.90;;;;;;5439864;26;20943;-75
2024/04/15 07:35:32;;;;;;;7.50;2.33;;;16.20;99.90;;;;;;5442910;26;20532;-75
2024/04/15 07:37:59;;;;;;;8.03;1.87;;;16.40;99.90;;;;;;5427021;26;20910;-75
2024/04/15 07:40:25;;;;;;;6.00;1.30;;;16.70;99.90;;;;;;5435784;26;20576;-75
2024/04/15 07:42:55;;;;;;;6.20;1.77;;;17.10;99.90;;;;;;5460031;26;20539;-75
2024/04/15 07:45:21;;;;;;;3.73;1.30;;;17.90;99.90;;;;;;5464334;26;20631;-74
2024/04/15 07:47:47;;;;;;;8.93;2.00;;;18.90;99.90;;;;;;5445401;26;20596;-74
2024/04/15 07:50:15;;;;;;;3.13;1.00;;;19.80;99.90;;;;;;5427318;26;21398;-75
2024/04/15 07:52:41;;;;;;;4.77;1.67;;;20.50;99.90;;;;;;5449533;26;20524;-75
2024/04/15 07:55:07;;;;;;;4.50;1.20;;;21.20;99.90;;;;;;5456419;26;20694;-73
2024/04/15 07:57:33;;;;;;;5.50;1.23;;;22.00;99.90;;;;;;5444440;26;20962;-74
2024/04/15 07:59:59;;;;;;;6.17;1.27;;;22.70;99.90;;;;;;5464188;26;20995;-74
2024/04/15 08:02:26;;;;;;;5.27;1.00;;;23.40;99.90;;;;;;5435332;26;20592;-74
2024/04/15 08:04:52;;;;;;;3.57;1.10;;;24.00;99.90;;;;;;5434326;26;21202;-74
2024/04/15 08:07:18;;;;;;;4.23;1.20;;;24.60;99.90;;;;;;5434704;26;20543;-73
2024/04/15 08:09:44;;;;;;;2.53;0.80;;;25.30;99.90;;;;;;5434649;26;20599;-73
2024/04/15 08:12:11;;;;;;;5.37;0.90;;;26.00;99.90;;;;;;5434063;26;21179;-73
2024/04/15 08:14:38;;;;;;;6.83;1.20;;;26.70;99.90;;;;;;5423016;26;20644;-73
2024/04/15 08:17:04;;;;;;;3.47;0.93;;;27.30;99.90;;;;;;5431737;26;20595;-74
2024/04/15 08:19:30;;;;;;;2.77;0.97;;;27.80;99.90;;;;;;5440507;26;20550;-74
2024/04/15 08:21:56;;;;;;;4.17;0.90;;;27.90;99.90;;;;;;5433508;26;20521;-74
2024/04/15 08:24:25;;;;;;;4.00;0.97;;;28.00;99.90;;;;;;5424958;26;20628;-73
2024/04/15 08:26:51;;;;;;;3.93;1.00;;;28.20;99.90;;;;;;5475436;26;20568;-73
2024/04/15 08:29:17;;;;;;;2.87;0.90;;;28.40;99.90;;;;;;5436293;26;20616;-73
2024/04/15 08:31:43;;;;;;;4.83;1.27;;;28.50;99.90;;;;;;5431804;26;20558;-73
2024/04/15 08:34:10;;;;;;;2.77;0.83;;;28.50;99.90;;;;;;5445932;26;21213;-72
2024/04/15 08:36:36;;;;;;;3.90;0.93;;;28.30;98.60;;;;;;5448627;26;20528;-73
2024/04/15 08:39:03;;;;;;;4.00;1.10;;;28.00;96.70;;;;;;5445092;26;20961;-73
2024/04/15 08:41:31;;;;;;;4.97;1.33;;;27.50;95.50;;;;;;5438270;26;20619;-73
2024/04/15 08:44:05;;;;;;;6.73;1.60;;;26.90;94.40;;;;;;5465963;26;20668;-73
2024/04/15 08:46:44;;;;;;;3.27;0.80;;;26.30;93.50;;;;;;5452606;26;20537;-73
2024/04/15 08:49:10;;;;;;;3.60;1.40;;;25.60;92.60;;;;;;5490267;26;20594;-73
2024/04/15 08:51:37;;;;;;;6.47;0.93;;;24.90;92.60;;;;;;5459092;26;20580;-73
2024/04/15 08:54:05;;;;;;;3.90;0.80;;;24.20;92.50;;;;;;5446119;26;20569;-73
2024/04/15 08:56:37;;;;;;;4.43;0.87;;;23.60;92.50;;;;;;5448215;26;20588;-73
2024/04/15 08:59:04;;;;;;;5.53;1.20;;;23.00;92.20;;;;;;5478017;26;20563;-73
2024/04/15 09:01:31;;;;;;;2.70;0.87;;;22.50;91.80;;;;;;5454454;26;20538;-74
2024/04/15 09:03:58;;;;;;;2.60;0.83;;;22.10;92.20;;;;;;5480800;26;20623;-74
2024/04/15 09:06:24;;;;;;;4.23;1.00;;;21.70;92.60;;;;;;5417197;26;20547;-74
2024/04/15 09:08:50;;;;;;;4.03;0.90;;;21.40;92.90;;;;;;5450287;26;21139;-74
2024/04/15 09:11:17;;;;;;;3.17;0.80;;;21.10;93.10;;;;;;5436620;26;20548;-74
2024/04/15 09:13:43;;;;;;;2.43;0.90;;;20.90;93.90;;;;;;5464885;26;20666;-73
2024/04/15 09:16:10;;;;;;;4.47;0.90;;;20.70;93.80;;;;;;5450999;26;20519;-73
2024/04/15 09:18:36;;;;;;;3.90;0.90;;;20.60;94.00;;;;;;5451700;26;20540;-73
2024/04/15 09:21:02;;;;;;;4.63;0.90;;;20.40;94.20;;;;;;5461012;26;20605;-73
2024/04/15 09:23:29;;;;;;;4.23;0.80;;;20.20;94.60;;;;;;5452869;26;20700;-73
2024/04/15 09:25:55;;;;;;;3.07;0.80;;;20.10;94.70;;;;;;5448827;26;20530;-72
2024/04/15 09:28:21;;;;;;;4.40;0.90;;;20.00;95.30;;;;;;5447308;26;21120;-73
2024/04/15 09:30:48;;;;;;;2.83;0.77;;;19.90;95.90;;;;;;5432362;26;20631;-73
2024/04/15 09:33:15;;;;;;;2.30;0.97;;;19.90;95.60;;;;;;5449509;26;20604;-73
2024/04/15 09:35:41;;;;;;;3.17;0.87;;;19.80;96.00;;;;;;5433303;26;21278;-73
2024/04/15 09:38:12;;;;;;;3.03;0.97;;;19.80;95.90;;;;;;5431169;26;20645;-73
2024/04/15 09:40:42;;;;;;;3.67;1.00;;;19.90;96.10;;;;;;5434949;26;21162;-73
2024/04/15 09:43:10;;;;;;;2.80;0.70;;;20.00;96.80;;;;;;5468201;26;20575;-73
2024/04/15 09:45:36;;;;;;;2.87;0.83;;;20.20;97.00;;;;;;5459561;26;20523;-73
2024/04/15 09:48:03;;;;;;;5.10;1.00;;;20.40;97.20;;;;;;5450840;26;20523;-73
2024/04/15 09:50:32;;;;;;;3.50;0.90;;;20.60;97.50;;;;;;5445726;26;21153;-73
2024/04/15 09:52:59;;;;;;;1.97;0.97;;;20.80;97.90;;;;;;5451100;26;20523;-73
2024/04/15 09:55:38;;;;;;;4.33;1.33;;;21.10;97.20;;;;;;5432989;26;20657;-74
2024/04/15 09:58:04;;;;;;;3.00;0.80;;;21.20;95.90;;;;;;5451568;26;21190;-73
2024/04/15 10:00:31;;;;;;;3.87;0.80;;;21.50;97.20;;;;;;5445097;26;20524;-73
2024/04/15 10:03:13;;;;;;;4.93;0.90;;;21.70;96.40;;;;;;5448936;26;21182;-73
2024/04/15 10:05:41;;;;;;;3.00;0.83;;;21.80;94.10;;;;;;5446112;26;20523;-73
2024/04/15 10:08:08;;;;;;;5.07;0.70;;;21.90;95.50;;;;;;5426758;26;21183;-73
2024/04/15 10:10:36;;;;;;;7.20;0.80;;;22.00;95.20;;;;;;5451120;26;20621;-73
2024/04/15 10:13:06;;;;;;;5.17;0.77;;;22.10;94.90;;;;;;5450236;26;20564;-73
2024/04/15 10:15:32;;;;;;;2.80;0.83;;;22.20;94.30;;;;;;5445367;26;20584;-74
2024/04/15 10:18:16;;;;;;;3.73;0.90;;;22.20;93.20;;;;;;5451034;26;20587;-73
2024/04/15 10:20:48;;;;;;;3.07;0.80;;;22.20;93.00;;;;;;5448747;26;20656;-73
2024/04/15 10:23:24;;;;;;;2.63;1.30;;;22.40;93.90;;;;;;5450448;26;20864;-73
2024/04/15 10:25:51;;;;;;;4.93;1.30;;;22.20;92.50;;;;;;5440395;26;20508;-73
2024/04/15 10:28:18;;;;;;;3.17;0.80;;;22.10;91.30;;;;;;5449066;26;20608;-73
2024/04/15 10:30:47;;;;;;;4.10;1.00;;;21.80;91.00;;;;;;5450781;26;20984;-73
2024/04/15 10:33:19;;;;;;;5.80;1.10;;;21.60;90.60;;;;;;5442987;26;20540;-73
2024/04/15 10:35:52;;;;;;;3.30;0.90;;;21.70;92.10;;;;;;5447424;26;20572;-73
2024/04/15 10:38:18;;;;;;;3.53;0.73;;;21.70;90.70;;;;;;5419190;26;20608;-73
2024/04/15 10:40:47;;;;;;;3.90;0.70;;;21.60;90.70;;;;;;5444485;26;20609;-73
2024/04/15 10:43:18;;;;;;;3.07;0.83;;;21.50;90.30;;;;;;5450109;26;20575;-73
2024/04/15 10:45:47;;;;;;;3.77;0.70;;;21.40;89.50;;;;;;5436804;26;20532;-72
2024/04/15 10:48:13;;;;;;;5.13;0.93;;;21.50;90.80;;;;;;5479342;26;20907;-72
2024/04/15 10:50:41;;;;;;;2.13;0.70;;;21.60;91.80;;;;;;5446179;26;20511;-73
2024/04/15 10:53:08;;;;;;;2.13;0.87;;;21.70;91.50;;;;;;5422914;26;20529;-73
2024/04/15 10:55:34;;;;;;;5.37;1.13;;;21.80;90.70;;;;;;5414393;26;20588;-73
2024/04/15 10:58:01;;;;;;;4.93;1.13;;;21.80;90.80;;;;;;5478369;26;20596;-73
2024/04/15 11:00:27;;;;;;;2.60;0.67;;;21.90;90.70;;;;;;5476574;26;20535;-74
2024/04/15 11:02:55;;;;;;;2.30;0.70;;;21.90;89.60;;;;;;5452084;26;21057;-73
2024/04/15 11:05:23;;;;;;;3.00;0.97;;;21.80;87.90;;;;;;5439707;26;20626;-74
2024/04/15 11:07:56;;;;;;;4.90;0.80;;;21.70;89.00;;;;;;5449889;26;20543;-74
2024/04/15 11:10:22;;;;;;;3.00;0.70;;;21.80;90.20;;;;;;5450620;26;20617;-74
2024/04/15 11:12:52;;;;;;;3.00;0.90;;;22.00;90.00;;;;;;5417787;26;20571;-74
2024/04/15 11:15:20;;;;;;;3.30;0.80;;;22.10;87.70;;;;;;5442187;26;20555;-74
2024/04/15 11:17:47;;;;;;;2.63;0.60;;;22.40;91.30;;;;;;5449873;26;20583;-74
2024/04/15 11:20:13;;;;;;;2.90;1.00;;;22.70;91.30;;;;;;5450276;26;20887;-74
2024/04/15 11:22:39;;;;;;;2.57;0.70;;;23.10;91.40;;;;;;5417700;26;20607;-74
2024/04/15 11:25:06;;;;;;;2.90;0.60;;;23.40;90.30;;;;;;5438243;26;20572;-74
2024/04/15 11:27:34;;;;;;;2.30;0.60;;;23.60;90.20;;;;;;5440932;26;20520;-74
2024/04/15 11:30:03;;;;;;;2.00;0.60;;;23.80;88.30;;;;;;5442425;26;20600;-74
2024/04/15 11:32:30;;;;;;;3.97;0.70;;;24.00;87.90;;;;;;5441197;26;20619;-74
2024/04/15 11:34:57;;;;;;;3.17;0.73;;;24.10;87.40;;;;;;5441925;26;20561;-74
2024/04/15 11:37:23;;;;;;;5.00;0.80;;;24.20;84.90;;;;;;5442790;26;20588;-74
2024/04/15 11:39:50;;;;;;;2.43;0.97;;;24.20;85.30;;;;;;5447497;26;20572;-74
2024/04/15 11:42:26;;;;;;;3.50;0.70;;;24.10;84.60;;;;;;5447820;26;20544;-74
2024/04/15 11:44:52;;;;;;;2.70;0.70;;;24.10;83.20;;;;;;5449261;26;20575;-74
2024/04/15 11:47:19;;;;;;;3.07;0.70;;;24.00;82.40;;;;;;5449812;26;20539;-74
2024/04/15 11:49:47;;;;;;;5.20;0.70;;;24.00;81.40;;;;;;5447958;26;20606;-74
2024/04/15 11:52:15;;;;;;;3.03;0.60;;;23.90;80.60;;;;;;5447969;26;20547;-74
2024/04/15 11:54:41;;;;;;;2.70;0.80;;;23.90;80.70;;;;;;5446455;26;21123;-73
2024/04/15 11:57:09;;;;;;;2.90;0.70;;;23.80;80.20;;;;;;5449331;26;20580;-74
2024/04/15 11:59:38;;;;;;;4.27;0.80;;;23.80;79.20;;;;;;5449228;26;20621;-73
2024/04/15 12:02:04;;;;;;;2.37;1.07;;;23.70;78.00;;;;;;5446897;26;20607;-74
2024/04/15 12:04:30;;;;;;;2.57;1.13;;;23.60;78.30;;;;;;5446826;26;21199;-72
2024/04/15 12:06:56;;;;;;;3.13;0.60;;;23.50;76.30;;;;;;5439526;26;20596;-72
2024/04/15 12:09:25;;;;;;;3.70;0.67;;;23.40;74.40;;;;;;5442068;26;20611;-73
2024/04/15 12:11:51;;;;;;;2.80;0.60;;;23.20;73.90;;;;;;5446949;26;20591;-72
2024/04/15 12:14:17;;;;;;;2.57;0.80;;;23.10;73.30;;;;;;5447996;26;20567;-73
2024/04/15 12:16:43;;;;;;;2.50;0.60;;;22.90;73.20;;;;;;5448719;26;20616;-73
2024/04/15 12:19:09;;;;;;;2.47;0.67;;;22.90;73.20;;;;;;5449454;26;21065;-73
2024/04/15 12:21:35;;;;;;;2.67;0.60;;;22.70;71.70;;;;;;5448672;26;21181;-72
2024/04/15 12:24:02;;;;;;;2.33;0.70;;;22.50;71.90;;;;;;5446684;26;21134;-73
2024/04/15 12:26:28;;;;;;;2.57;0.90;;;22.30;71.20;;;;;;5444996;26;20616;-73
2024/04/15 12:28:55;;;;;;;3.63;0.70;;;22.10;70.30;;;;;;5447608;26;20607;-72
2024/04/15 12:31:21;;;;;;;1.70;0.60;;;21.80;69.20;;;;;;5447223;26;20866;-73
2024/04/15 12:33:47;;;;;;;3.40;0.60;;;21.50;69.20;;;;;;5446134;26;20623;-73
2024/04/15 12:36:14;;;;;;;2.03;0.60;;;21.20;68.90;;;;;;5448723;26;20928;-72
2024/04/15 12:38:40;;;;;;;3.40;0.70;;;21.00;69.00;;;;;;5443842;26;20600;-72
2024/04/15 12:41:06;;;;;;;3.97;0.97;;;20.70;68.60;;;;;;5477496;26;20577;-72
2024/04/15 12:43:33;;;;;;;2.87;0.80;;;20.40;68.90;;;;;;5415839;26;20642;-74
2024/04/15 12:45:59;;;;;;;1.70;0.60;;;20.30;68.50;;;;;;5434537;26;20631;-73